Time;durP1;ratioP1;P1;durP2;ratioP2;P2;SDS_P1;SDS_P2;PMS_P1;PMS_P2;Temp;Humidity;BMP_temperature;BMP_pressure;BME280_temperature;BME280_humidity;BME280_pressure;Samples;Min_cycle;Max_cycle;Signal;HPM_P1;HPM_P2
2022/01/29 00:02:19;;;;;;;9.30;6.28;;;;;;;15.61;43.61;101387.47;4928998;29;20492;-93
2022/01/29 00:04:53;;;;;;;8.52;6.55;;;;;;;15.60;43.51;101386.63;4928555;29;20541;-92
2022/01/29 00:07:18;;;;;;;9.35;6.35;;;;;;;15.60;43.65;101383.09;4926694;29;20039;-92
2022/01/29 00:09:47;;;;;;;10.05;7.30;;;;;;;15.60;43.58;101376.09;4931185;29;20028;-93
2022/01/29 00:12:13;;;;;;;9.52;6.28;;;;;;;15.59;43.54;101389.25;4927623;29;20028;-92
2022/01/29 00:14:39;;;;;;;9.18;6.20;;;;;;;15.59;43.49;101389.25;4928867;29;20522;-92
2022/01/29 00:17:06;;;;;;;8.85;5.88;;;;;;;15.57;43.45;101379.63;4927922;29;20031;-92
2022/01/29 00:19:33;;;;;;;9.57;6.63;;;;;;;15.57;43.80;101377.00;4927902;29;20039;-92
2022/01/29 00:22:03;;;;;;;8.73;6.00;;;;;;;15.56;43.51;101369.97;4928924;29;20096;-92
2022/01/29 00:24:29;;;;;;;7.40;5.68;;;;;;;15.56;43.48;101364.69;4927558;29;20032;-93
2022/01/29 00:26:54;;;;;;;9.07;6.47;;;;;;;15.56;43.46;101364.69;4929436;29;20125;-91
2022/01/29 00:29:23;;;;;;;8.20;6.15;;;;;;;15.57;43.57;101352.44;4927907;29;20029;-92
2022/01/29 00:31:49;;;;;;;7.90;6.07;;;;;;;15.56;43.68;101348.06;4928374;29;20489;-93
2022/01/29 00:34:18;;;;;;;9.10;6.22;;;;;;;15.56;43.40;101348.91;4928386;29;20064;-91
2022/01/29 00:36:43;;;;;;;9.15;6.55;;;;;;;15.55;43.54;101341.91;4928758;29;20028;-92
2022/01/29 00:39:10;;;;;;;9.98;6.55;;;;;;;15.55;43.68;101341.91;4928282;29;20127;-91
2022/01/29 00:41:37;;;;;;;8.30;5.82;;;;;;;15.55;43.53;101349.78;4927806;29;20394;-92
2022/01/29 00:44:03;;;;;;;8.07;5.82;;;;;;;15.54;43.40;101347.16;4930347;29;20043;-92
2022/01/29 00:46:29;;;;;;;8.05;5.95;;;;;;;15.53;43.30;101343.69;4929634;29;20043;-92
2022/01/29 00:48:54;;;;;;;7.97;5.65;;;;;;;15.54;43.45;101344.53;4929804;29;20024;-92
2022/01/29 00:51:21;;;;;;;8.20;6.07;;;;;;;15.52;43.43;101341.94;4930078;29;20390;-92
2022/01/29 00:53:47;;;;;;;7.65;5.47;;;;;;;15.53;43.46;101333.16;4929485;29;20031;-92
2022/01/29 00:56:12;;;;;;;8.25;5.75;;;;;;;15.54;43.61;101332.28;4927640;29;20047;-93
2022/01/29 00:58:38;;;;;;;8.68;6.03;;;;;;;15.53;43.63;101330.53;4928546;29;20020;-92
2022/01/29 01:01:04;;;;;;;8.20;5.35;;;;;;;15.53;43.44;101332.28;4928764;29;20031;-92
2022/01/29 01:03:29;;;;;;;7.47;5.78;;;;;;;15.52;43.58;101325.28;4910708;29;20043;-92
2022/01/29 01:05:55;;;;;;;7.65;5.43;;;;;;;15.51;43.50;101319.16;4926632;29;20049;-92
2022/01/29 01:08:21;;;;;;;8.82;5.63;;;;;;;15.51;43.76;101313.88;4926169;29;20038;-92
2022/01/29 01:10:46;;;;;;;8.27;5.93;;;;;;;15.52;43.64;101326.16;4926484;29;20039;-92
2022/01/29 01:13:12;;;;;;;7.97;5.63;;;;;;;15.51;43.47;101324.41;4926239;29;20474;-92
2022/01/29 01:15:39;;;;;;;8.20;5.70;;;;;;;15.51;43.35;101326.16;4926687;29;20068;-93
2022/01/29 01:18:05;;;;;;;8.13;5.63;;;;;;;15.51;43.58;101329.69;4927929;29;20032;-93
2022/01/29 01:20:33;;;;;;;7.70;4.93;;;;;;;15.50;43.50;101338.44;4927954;29;20351;-93
2022/01/29 01:23:01;;;;;;;8.30;5.72;;;;;;;15.50;43.55;101337.56;4926063;29;20024;-93
2022/01/29 01:25:27;;;;;;;7.38;5.15;;;;;;;15.49;43.47;101339.31;4914495;29;20056;-92
2022/01/29 01:27:53;;;;;;;8.57;5.60;;;;;;;15.49;43.56;101343.72;4932463;29;20047;-93
2022/01/29 01:30:19;;;;;;;8.57;5.45;;;;;;;15.49;43.74;101341.09;4931748;29;20020;-91
2022/01/29 01:32:46;;;;;;;7.97;5.22;;;;;;;15.48;43.54;101340.22;4929548;29;20013;-93
2022/01/29 01:35:23;;;;;;;7.55;5.40;;;;;;;15.48;43.62;101342.84;4928218;29;20044;-92
2022/01/29 01:38:00;;;;;;;7.10;5.05;;;;;;;15.48;43.54;101350.75;4935250;29;20024;-93
2022/01/29 01:40:27;;;;;;;7.70;5.20;;;;;;;15.49;43.59;101347.22;4933129;29;20051;-92
2022/01/29 01:42:59;;;;;;;7.20;5.00;;;;;;;15.47;43.52;101351.63;4920032;29;20064;-91
2022/01/29 01:45:27;;;;;;;7.28;5.15;;;;;;;15.46;43.43;101346.38;4937439;29;20087;-92
2022/01/29 01:47:54;;;;;;;8.65;5.47;;;;;;;15.46;43.53;101344.63;4935513;29;20020;-92
2022/01/29 01:50:21;;;;;;;7.25;5.28;;;;;;;15.46;43.43;101352.53;4935109;29;20035;-92
2022/01/29 01:52:51;;;;;;;6.93;4.97;;;;;;;15.46;43.41;101352.53;4935779;29;20009;-93
2022/01/29 01:55:17;;;;;;;7.30;4.90;;;;;;;15.47;43.53;101349.00;4933082;29;20034;-92
2022/01/29 01:57:49;;;;;;;7.32;5.10;;;;;;;15.45;43.39;101345.47;4937788;29;20052;-92
2022/01/29 02:00:16;;;;;;;7.25;4.65;;;;;;;15.44;43.48;101349.91;4938102;29;20032;-92
2022/01/29 02:02:41;;;;;;;7.50;4.82;;;;;;;15.45;43.28;101350.75;4938369;29;20039;-92
2022/01/29 02:05:08;;;;;;;7.88;5.53;;;;;;;15.44;43.36;101343.75;4939275;29;20048;-93
2022/01/29 02:07:36;;;;;;;7.55;5.03;;;;;;;15.42;43.35;101343.78;4938999;29;20024;-94
2022/01/29 02:10:07;;;;;;;7.00;5.07;;;;;;;15.43;43.40;101336.75;4922464;29;20052;-93
2022/01/29 02:12:44;;;;;;;6.72;4.78;;;;;;;15.43;43.40;101328.84;4938552;29;20027;-92
2022/01/29 02:15:12;;;;;;;7.38;5.57;;;;;;;15.43;43.49;101326.22;4930067;29;20028;-92
2022/01/29 02:17:37;;;;;;;7.18;5.07;;;;;;;15.41;43.49;101318.34;4927397;29;20039;-92
2022/01/29 02:20:05;;;;;;;7.38;4.80;;;;;;;15.38;43.53;101310.47;4926132;29;20454;-92
2022/01/29 02:22:32;;;;;;;6.95;4.90;;;;;;;15.42;43.37;101311.31;4925783;29;20019;-92
2022/01/29 02:24:59;;;;;;;6.75;4.85;;;;;;;15.40;43.26;101316.59;4925515;29;20024;-92
2022/01/29 02:27:25;;;;;;;6.85;4.70;;;;;;;15.42;43.49;101311.31;4925080;29;20375;-92
2022/01/29 02:29:54;;;;;;;7.55;4.90;;;;;;;15.39;43.55;101306.06;4929039;29;20036;-92
2022/01/29 02:32:19;;;;;;;7.43;4.82;;;;;;;15.39;43.47;101300.81;4926683;29;20083;-92
2022/01/29 02:34:45;;;;;;;7.00;4.47;;;;;;;15.38;43.57;101302.59;4925321;29;20483;-91
2022/01/29 02:37:10;;;;;;;7.70;5.15;;;;;;;15.38;43.59;101291.19;4926308;29;20055;-92
2022/01/29 02:39:36;;;;;;;6.53;4.40;;;;;;;15.38;43.37;101293.81;4926040;29;20045;-92
2022/01/29 02:42:03;;;;;;;6.10;4.45;;;;;;;15.36;43.27;101285.06;4926831;29;20367;-91
2022/01/29 02:44:30;;;;;;;6.78;4.45;;;;;;;15.38;43.33;101285.91;4926579;29;20036;-92
2022/01/29 02:47:13;;;;;;;6.88;4.57;;;;;;;15.36;43.46;101277.19;4921834;29;20032;-93
2022/01/29 02:49:43;;;;;;;6.22;4.43;;;;;;;15.37;43.52;101271.03;4926562;29;20107;-92
2022/01/29 02:52:09;;;;;;;6.75;4.28;;;;;;;15.36;43.62;101278.03;4927909;29;20058;-92
2022/01/29 02:54:37;;;;;;;5.68;4.13;;;;;;;15.35;43.46;101275.44;4924996;29;20374;-92
2022/01/29 02:57:03;;;;;;;6.00;3.95;;;;;;;15.36;43.64;101277.19;4924982;29;20063;-92
2022/01/29 02:59:29;;;;;;;5.68;3.63;;;;;;;15.35;43.67;101285.97;4925425;29;20115;-92
2022/01/29 03:01:54;;;;;;;6.32;3.80;;;;;;;15.33;43.57;101278.06;4925392;29;20070;-92
2022/01/29 03:04:20;;;;;;;5.95;3.95;;;;;;;15.35;43.43;101281.56;4925578;29;20060;-92
2022/01/29 03:06:45;;;;;;;6.03;4.15;;;;;;;15.34;43.45;101281.59;4925062;29;20056;-92
2022/01/29 03:09:11;;;;;;;6.32;4.47;;;;;;;15.33;43.57;101272.81;4927933;29;20032;-93
2022/01/29 03:11:37;;;;;;;6.50;4.20;;;;;;;15.33;43.57;101264.91;4926230;29;20023;-92
2022/01/29 03:14:02;;;;;;;5.93;4.15;;;;;;;15.34;43.57;101257.91;4931814;29;20039;-92
2022/01/29 03:16:28;;;;;;;6.10;4.25;;;;;;;15.34;43.43;101257.91;4930930;29;20031;-92
2022/01/29 03:18:55;;;;;;;6.50;4.30;;;;;;;15.34;43.44;101257.91;4930894;29;20028;-92
2022/01/29 03:21:21;;;;;;;5.50;4.13;;;;;;;15.33;43.49;101262.28;4931608;29;20024;-92
2022/01/29 03:23:47;;;;;;;5.72;4.00;;;;;;;15.34;43.56;101265.81;4929645;29;20086;-93
2022/01/29 03:26:12;;;;;;;5.38;3.85;;;;;;;15.33;43.31;101264.91;4929403;29;20032;-92
2022/01/29 03:28:42;;;;;;;5.72;3.88;;;;;;;15.34;43.56;101269.28;4913623;29;20032;-93
2022/01/29 03:31:08;;;;;;;6.03;4.13;;;;;;;15.33;43.27;101271.94;4930134;29;20087;-93
2022/01/29 03:33:33;;;;;;;5.85;3.63;;;;;;;15.32;43.33;101265.81;4932471;29;20100;-92
2022/01/29 03:35:59;;;;;;;5.60;3.92;;;;;;;15.32;43.47;101272.81;4934013;29;20427;-93
2022/01/29 03:38:25;;;;;;;5.03;3.47;;;;;;;15.30;43.37;101271.06;4933297;29;20032;-92
2022/01/29 03:40:51;;;;;;;5.95;3.78;;;;;;;15.32;43.46;101267.56;4927761;29;20407;-92
2022/01/29 03:43:26;;;;;;;5.88;3.90;;;;;;;15.29;43.45;101261.44;4912610;29;20035;-92
2022/01/29 03:45:51;;;;;;;5.55;3.70;;;;;;;15.30;43.61;101267.56;4927464;29;20389;-93
2022/01/29 03:48:18;;;;;;;5.65;3.70;;;;;;;15.30;43.47;101268.44;4928083;29;20028;-92
2022/01/29 03:50:44;;;;;;;5.45;3.53;;;;;;;15.30;43.34;101263.19;4927476;29;20046;-93
2022/01/29 03:53:09;;;;;;;5.50;3.70;;;;;;;15.30;43.46;101267.56;4928595;29;20058;-92
2022/01/29 03:55:37;;;;;;;5.72;3.53;;;;;;;15.28;43.63;101278.13;4927555;29;20058;-92
2022/01/29 03:58:04;;;;;;;5.55;3.40;;;;;;;15.29;43.35;101277.22;4926967;29;20509;-92
2022/01/29 04:00:29;;;;;;;5.80;3.50;;;;;;;15.29;43.43;101276.34;4930785;29;20028;-92
2022/01/29 04:02:55;;;;;;;5.65;3.25;;;;;;;15.29;43.61;101274.59;4933728;29;20043;-93
2022/01/29 04:05:21;;;;;;;4.82;3.20;;;;;;;15.28;43.58;101286.00;4935617;29;20450;-92
2022/01/29 04:07:47;;;;;;;5.53;3.35;;;;;;;15.29;43.62;101293.00;4932322;29;20024;-92
2022/01/29 04:10:13;;;;;;;4.97;3.28;;;;;;;15.28;43.50;101293.00;4932020;29;20043;-94
2022/01/29 04:12:44;;;;;;;5.07;3.38;;;;;;;15.28;43.50;101301.78;4938180;29;20075;-92
2022/01/29 04:15:10;;;;;;;5.05;3.45;;;;;;;15.28;43.39;101307.06;4938851;29;20028;-93
2022/01/29 04:17:37;;;;;;;5.60;3.28;;;;;;;15.28;43.50;101307.06;4938843;29;20024;-93
2022/01/29 04:20:04;;;;;;;5.18;3.50;;;;;;;15.26;43.51;101306.16;4941469;29;20038;-93
2022/01/29 04:22:29;;;;;;;5.30;3.15;;;;;;;15.27;43.42;101310.53;4939996;29;20028;-92
2022/01/29 04:24:55;;;;;;;5.28;3.13;;;;;;;15.24;43.24;101305.31;4941294;29;20368;-93
2022/01/29 04:27:31;;;;;;;5.47;3.72;;;;;;;15.24;43.41;101305.31;4935728;29;20033;-92
2022/01/29 04:30:00;;;;;;;5.93;3.85;;;;;;;15.23;43.53;101300.94;4942210;29;20423;-93
2022/01/29 04:33:23;;;;;;;5.47;3.20;;;;;;;15.23;43.45;101293.06;4942975;29;20008;-93
2022/01/29 04:35:12;;;;;;;5.22;3.15;;;;;;;15.23;43.54;101306.22;4930443;29;20056;-92
2022/01/29 04:37:38;;;;;;;5.03;3.00;;;;;;;15.21;43.44;101299.22;4942295;29;20095;-92
2022/01/29 04:40:04;;;;;;;3.97;2.63;;;;;;;15.23;43.49;101300.06;4942051;29;20028;-92
2022/01/29 04:42:30;;;;;;;4.68;3.10;;;;;;;15.21;43.47;101292.19;4940403;29;20028;-92
2022/01/29 04:44:55;;;;;;;4.80;3.15;;;;;;;15.22;43.42;101300.94;4939437;29;20012;-93
2022/01/29 04:47:21;;;;;;;4.03;2.60;;;;;;;15.20;43.44;101303.59;4911095;29;20032;-92
2022/01/29 04:49:47;;;;;;;5.25;3.10;;;;;;;15.21;43.51;101289.53;4910779;29;20032;-92
2022/01/29 04:52:13;;;;;;;4.43;2.75;;;;;;;15.20;43.57;101287.81;4927146;29;20020;-92
2022/01/29 04:54:39;;;;;;;4.75;3.05;;;;;;;15.21;43.40;101294.81;4926472;29;20028;-92
2022/01/29 04:57:04;;;;;;;4.68;3.00;;;;;;;15.19;43.62;101280.81;4926548;29;20498;-92
2022/01/29 04:59:30;;;;;;;4.53;2.75;;;;;;;15.17;43.46;101280.81;4925663;29;20028;-92
2022/01/29 05:01:55;;;;;;;4.07;2.67;;;;;;;15.19;43.45;101286.06;4925294;29;20067;-92
2022/01/29 05:04:21;;;;;;;5.32;3.10;;;;;;;15.16;43.65;101271.19;4927415;29;20043;-92
2022/01/29 05:06:46;;;;;;;4.63;2.85;;;;;;;15.17;43.38;101269.44;4926096;29;20039;-91
2022/01/29 05:09:12;;;;;;;4.18;2.65;;;;;;;15.16;43.55;101259.81;4926249;29;20478;-92
2022/01/29 05:11:41;;;;;;;4.95;3.00;;;;;;;15.17;43.43;101256.28;4925531;29;20036;-92
2022/01/29 05:14:11;;;;;;;5.13;3.30;;;;;;;15.16;43.40;101259.81;4925416;29;20024;-92
2022/01/29 05:27:13;;;;;;;4.43;2.63;;;;;;;15.14;43.57;101282.59;4927837;29;20068;-91
2022/01/29 05:29:39;;;;;;;4.43;2.70;;;;;;;15.15;43.43;101276.44;4926286;29;20036;-92
2022/01/29 05:32:07;;;;;;;4.28;2.67;;;;;;;15.12;43.56;101279.97;4925878;29;20024;-93
2022/01/29 05:34:35;;;;;;;4.30;2.58;;;;;;;15.13;43.44;101276.47;4925865;29;20480;-93
2022/01/29 05:37:02;;;;;;;4.88;3.10;;;;;;;15.12;43.49;101284.38;4927196;29;20020;-93
2022/01/29 05:39:28;;;;;;;4.43;2.78;;;;;;;15.13;43.52;101281.75;4925273;29;20028;-92
2022/01/29 05:41:56;;;;;;;4.40;2.75;;;;;;;15.13;43.57;101276.47;4928577;29;20015;-93
2022/01/29 05:44:22;;;;;;;4.38;2.58;;;;;;;15.11;43.52;101283.50;4926967;29;20027;-93
2022/01/29 05:46:48;;;;;;;4.65;3.10;;;;;;;15.11;43.35;101277.38;4928692;29;20092;-93
2022/01/29 05:49:13;;;;;;;4.80;2.80;;;;;;;15.10;43.59;101275.59;4929231;29;20051;-93
2022/01/29 05:51:39;;;;;;;4.25;2.55;;;;;;;15.09;43.44;101273.88;4927364;29;20035;-92
2022/01/29 05:54:04;;;;;;;4.93;2.80;;;;;;;15.08;43.60;101270.38;4927473;29;20436;-93
2022/01/29 05:56:30;;;;;;;4.85;2.70;;;;;;;15.09;43.48;101277.38;4926982;29;20094;-92
2022/01/29 05:58:57;;;;;;;4.15;2.63;;;;;;;15.09;43.61;101273.88;4928949;29;20028;-93
2022/01/29 06:01:24;;;;;;;4.00;2.30;;;;;;;15.09;43.63;101273.88;4929922;29;20040;-93
2022/01/29 06:03:49;;;;;;;4.47;2.58;;;;;;;15.09;43.62;101276.50;4928948;29;20067;-92
2022/01/29 06:06:15;;;;;;;4.20;2.65;;;;;;;15.09;43.65;101289.63;4928584;29;20469;-92
2022/01/29 06:08:41;;;;;;;3.30;2.13;;;;;;;15.09;43.46;101297.53;4930482;29;20030;-92
2022/01/29 06:11:07;;;;;;;4.70;2.80;;;;;;;15.07;43.58;101301.94;4913218;29;20123;-92
2022/01/29 06:13:34;;;;;;;4.05;2.45;;;;;;;15.06;43.56;101297.56;4927177;29;20023;-93
2022/01/29 06:16:03;;;;;;;4.10;2.53;;;;;;;15.06;43.48;101300.19;4927295;29;20050;-92
2022/01/29 06:18:30;;;;;;;4.20;2.55;;;;;;;15.07;43.58;101305.44;4925899;29;20047;-92
2022/01/29 06:21:03;;;;;;;3.60;2.17;;;;;;;15.05;43.53;101309.81;4927341;29;20481;-92
2022/01/29 06:23:31;;;;;;;3.97;2.63;;;;;;;15.07;43.53;101317.72;4927161;29;20034;-93
2022/01/29 06:25:58;;;;;;;4.13;2.47;;;;;;;15.05;43.50;101325.59;4926251;29;20131;-93
2022/01/29 06:28:23;;;;;;;4.43;2.63;;;;;;;15.04;43.47;101315.97;4924970;29;20103;-92
2022/01/29 06:30:49;;;;;;;4.25;2.58;;;;;;;15.05;43.53;101322.13;4924163;29;20032;-92
2022/01/29 06:33:15;;;;;;;4.25;2.40;;;;;;;15.07;43.53;101331.75;4925785;29;20035;-92
2022/01/29 06:35:43;;;;;;;4.38;2.65;;;;;;;15.02;43.33;101321.22;4926878;29;20036;-93
2022/01/29 06:38:11;;;;;;;3.70;2.33;;;;;;;15.01;43.55;101327.38;4912643;29;20047;-92
2022/01/29 06:40:37;;;;;;;3.80;2.25;;;;;;;15.03;43.49;101333.50;4935425;29;20036;-92
2022/01/29 06:43:05;;;;;;;3.67;2.38;;;;;;;15.02;43.62;101331.75;4931773;29;20032;-92
2022/01/29 06:45:32;;;;;;;3.90;2.38;;;;;;;15.05;43.47;101330.00;4930985;29;20039;-93
2022/01/29 06:47:58;;;;;;;3.92;2.60;;;;;;;15.04;43.47;101329.13;4931933;29;20043;-92
2022/01/29 06:50:25;;;;;;;4.25;2.40;;;;;;;15.02;43.51;101323.88;4931676;29;20463;-93
2022/01/29 06:52:52;;;;;;;3.47;2.17;;;;;;;15.01;43.47;101330.00;4933819;29;20043;-93
2022/01/29 06:55:18;;;;;;;3.97;2.28;;;;;;;15.00;43.46;101317.75;4934204;29;20028;-93
2022/01/29 06:57:44;;;;;;;3.70;2.50;;;;;;;15.01;43.54;101323.91;4935512;29;20067;-93
2022/01/29 07:00:10;;;;;;;3.88;2.28;;;;;;;15.02;43.50;101315.97;4934977;29;20057;-92
2022/01/29 07:02:40;;;;;;;3.88;2.40;;;;;;;15.00;43.51;101317.75;4936785;29;20138;-93
2022/01/29 07:05:08;;;;;;;3.83;2.30;;;;;;;14.99;43.56;101326.53;4937338;29;20032;-93
2022/01/29 07:07:33;;;;;;;3.55;2.20;;;;;;;14.99;43.51;101330.91;4939471;29;20032;-92
2022/01/29 07:10:00;;;;;;;3.25;2.00;;;;;;;15.00;43.50;101333.53;4940621;29;20024;-92
2022/01/29 07:12:26;;;;;;;4.00;2.30;;;;;;;14.99;43.56;101326.53;4925062;29;20016;-92
2022/01/29 07:14:55;;;;;;;3.70;2.28;;;;;;;14.98;43.57;101327.41;4932698;29;20036;-93
2022/01/29 07:17:22;;;;;;;3.50;2.05;;;;;;;14.96;43.56;101331.78;4930426;29;20067;-92
2022/01/29 07:19:52;;;;;;;3.97;2.20;;;;;;;14.98;43.51;101334.41;4926371;29;20438;-92
2022/01/29 07:22:19;;;;;;;4.18;2.58;;;;;;;14.95;43.59;101337.94;4926616;29;20040;-93
2022/01/29 07:24:48;;;;;;;3.47;2.15;;;;;;;14.95;43.59;101335.31;4927728;29;20036;-92
2022/01/29 07:27:15;;;;;;;3.80;2.17;;;;;;;14.94;43.58;101332.69;4910871;29;20112;-92
2022/01/29 07:29:40;;;;;;;4.03;2.20;;;;;;;14.93;43.68;101337.09;4926656;29;20096;-92
2022/01/29 07:32:07;;;;;;;4.15;2.42;;;;;;;14.95;43.56;101344.94;4926523;29;20080;-92
2022/01/29 07:34:34;;;;;;;3.53;2.00;;;;;;;14.93;43.52;101352.84;4925800;29;20028;-92
2022/01/29 07:37:01;;;;;;;3.92;2.45;;;;;;;14.94;43.67;101359.84;4925594;29;20110;-93
2022/01/29 07:39:27;;;;;;;3.72;2.30;;;;;;;14.92;43.69;101359.00;4927231;29;20028;-93
2022/01/29 07:41:55;;;;;;;3.65;2.10;;;;;;;14.91;43.54;101349.34;4926362;29;20044;-92
2022/01/29 07:44:21;;;;;;;3.28;2.00;;;;;;;14.92;43.74;101351.09;4930277;29;20421;-92
2022/01/29 07:46:48;;;;;;;3.15;2.00;;;;;;;14.93;43.29;101346.72;4926823;29;20077;-92
2022/01/29 07:49:13;;;;;;;3.83;2.20;;;;;;;14.93;43.56;101352.84;4926503;29;20032;-92
2022/01/29 07:51:39;;;;;;;3.95;2.20;;;;;;;14.92;43.63;101359.00;4926578;29;20487;-91
2022/01/29 07:54:06;;;;;;;3.65;2.03;;;;;;;14.91;43.63;101359.84;4927272;29;20127;-92
2022/01/29 07:56:33;;;;;;;3.60;2.03;;;;;;;14.91;43.59;101354.59;4930228;29;20064;-92
2022/01/29 07:58:59;;;;;;;2.90;1.90;;;;;;;14.92;43.54;101356.38;4927761;29;20055;-92
2022/01/29 08:01:24;;;;;;;3.78;2.08;;;;;;;14.92;43.56;101366.88;4926829;29;20047;-92
2022/01/29 08:03:52;;;;;;;4.20;2.25;;;;;;;14.90;43.75;101364.25;4930422;29;20036;-92
2022/01/29 08:06:26;;;;;;;3.67;1.92;;;;;;;14.90;43.81;101363.38;4930592;29;20040;-92
2022/01/29 08:08:52;;;;;;;3.28;2.05;;;;;;;14.89;43.58;101366.88;4930992;29;20115;-92
2022/01/29 08:11:18;;;;;;;3.45;1.83;;;;;;;14.89;43.42;101366.88;4932139;29;20034;-92
2022/01/29 08:13:46;;;;;;;3.65;2.35;;;;;;;14.89;43.64;101364.25;4934912;29;20136;-93
2022/01/29 08:16:13;;;;;;;4.00;2.10;;;;;;;14.87;43.56;101368.66;4929261;29;20039;-92
2022/01/29 08:18:42;;;;;;;3.70;2.13;;;;;;;14.85;43.60;101367.78;4931735;29;20103;-92
2022/01/29 08:21:16;;;;;;;3.67;2.17;;;;;;;14.87;43.63;101374.78;4931324;29;20028;-92
2022/01/29 08:23:43;;;;;;;3.60;2.00;;;;;;;14.86;43.80;101367.78;4930063;29;20064;-92
2022/01/29 08:26:09;;;;;;;3.88;2.17;;;;;;;14.86;43.61;101364.25;4931058;29;20130;-93
2022/01/29 08:28:35;;;;;;;3.63;2.13;;;;;;;14.87;43.68;101364.25;4930663;29;20046;-93
2022/01/29 08:31:00;;;;;;;3.38;2.22;;;;;;;14.88;43.48;101365.13;4930086;29;20431;-91
2022/01/29 08:33:28;;;;;;;3.75;1.98;;;;;;;14.86;43.65;101367.78;4930787;29;20031;-92
2022/01/29 08:35:54;;;;;;;3.33;2.05;;;;;;;14.86;43.52;101364.25;4939083;29;20064;-93
2022/01/29 08:38:21;;;;;;;4.05;2.45;;;;;;;14.86;43.67;101362.50;4931946;29;20032;-91
2022/01/29 08:40:47;;;;;;;3.20;1.85;;;;;;;14.87;43.65;101363.41;4931565;29;20032;-93
2022/01/29 08:43:13;;;;;;;3.80;2.20;;;;;;;14.86;43.53;101372.13;4931963;29;20091;-92
2022/01/29 08:45:38;;;;;;;3.25;2.00;;;;;;;14.87;43.57;101368.66;4931813;29;20056;-92
2022/01/29 08:48:05;;;;;;;3.55;2.20;;;;;;;14.85;43.69;101370.41;4933235;29;20032;-92
2022/01/29 08:50:31;;;;;;;3.80;2.05;;;;;;;14.85;43.64;101370.41;4934056;29;20064;-92
2022/01/29 08:52:59;;;;;;;3.25;1.92;;;;;;;14.84;43.76;101373.91;4917551;29;20031;-92
2022/01/29 08:55:28;;;;;;;3.03;1.80;;;;;;;14.85;43.66;101373.91;4933177;29;20051;-92
2022/01/29 08:57:54;;;;;;;2.95;1.73;;;;;;;14.84;43.65;101381.78;4935484;29;20047;-92
2022/01/29 09:00:20;;;;;;;4.05;2.28;;;;;;;14.84;43.47;101373.91;4930400;29;20039;-92
2022/01/29 09:02:45;;;;;;;3.53;1.98;;;;;;;14.84;43.71;101394.94;4930574;29;20047;-92
2022/01/29 09:05:13;;;;;;;4.35;2.10;;;;;;;14.83;43.57;101396.72;4928944;29;20032;-92
2022/01/29 09:07:39;;;;;;;3.03;1.90;;;;;;;14.85;43.59;101401.94;4929707;29;20455;-92
2022/01/29 09:10:05;;;;;;;3.67;2.00;;;;;;;14.84;43.69;101410.72;4928587;29;20130;-92
2022/01/29 09:12:32;;;;;;;3.80;1.95;;;;;;;14.83;43.66;101414.22;4930680;29;20050;-93
2022/01/29 09:14:57;;;;;;;3.65;2.10;;;;;;;14.83;43.70;101422.09;4930099;29;20063;-92
2022/01/29 09:17:23;;;;;;;3.67;2.17;;;;;;;14.81;43.67;101416.00;4929284;29;20032;-92
2022/01/29 09:19:49;;;;;;;3.47;1.95;;;;;;;14.82;43.76;101412.47;4929775;29;20389;-92
2022/01/29 09:22:14;;;;;;;3.35;2.00;;;;;;;14.83;43.68;101414.22;4929888;29;20040;-93
2022/01/29 09:24:42;;;;;;;4.20;2.50;;;;;;;14.84;43.75;101413.34;4931109;29;20036;-93
2022/01/29 09:27:11;;;;;;;3.40;2.08;;;;;;;14.83;43.60;101416.84;4930359;29;20422;-93
2022/01/29 09:29:36;;;;;;;3.75;2.03;;;;;;;14.83;43.59;101427.38;4932673;29;20028;-92
2022/01/29 09:32:03;;;;;;;4.15;2.38;;;;;;;14.83;43.75;101427.38;4930443;29;20091;-92
2022/01/29 09:34:29;;;;;;;3.10;1.80;;;;;;;14.82;43.60;101431.75;4931343;29;20056;-93
2022/01/29 09:36:54;;;;;;;3.30;1.83;;;;;;;14.80;43.68;101437.88;4930917;29;20044;-92
2022/01/29 09:39:20;;;;;;;3.65;2.10;;;;;;;14.81;43.68;101442.28;4931355;29;20098;-93
2022/01/29 09:41:46;;;;;;;2.90;1.90;;;;;;;14.81;43.55;101447.53;4929882;29;20036;-92
2022/01/29 09:44:13;;;;;;;3.30;2.17;;;;;;;14.80;43.65;101444.03;4931626;29;20034;-93
2022/01/29 09:46:40;;;;;;;3.42;2.00;;;;;;;14.80;43.73;101448.38;4929931;29;20028;-92
2022/01/29 09:49:07;;;;;;;3.42;2.13;;;;;;;14.77;43.65;101442.28;4929934;29;20032;-92
2022/01/29 09:51:37;;;;;;;3.58;2.03;;;;;;;14.79;43.76;101449.28;4929081;29;20054;-93
2022/01/29 09:54:03;;;;;;;4.80;2.47;;;;;;;14.77;43.67;101455.41;4928705;29;20024;-92
2022/01/29 09:56:31;;;;;;;4.47;2.20;;;;;;;14.80;43.58;101451.00;4937311;29;20062;-92
2022/01/29 09:58:59;;;;;;;3.42;1.88;;;;;;;14.78;43.77;101451.03;4950953;29;20027;-92
2022/01/29 10:01:25;;;;;;;3.95;2.38;;;;;;;14.79;43.61;101454.53;4950639;29;20038;-93
2022/01/29 10:04:04;;;;;;;3.67;2.28;;;;;;;14.78;43.67;101458.94;4949859;29;20024;-93
2022/01/29 10:06:30;;;;;;;3.58;2.03;;;;;;;14.77;43.72;101458.03;4951237;29;20027;-93
2022/01/29 10:09:01;;;;;;;4.07;2.10;;;;;;;14.78;43.75;101448.41;4968587;29;20038;-93
2022/01/29 10:11:30;;;;;;;3.80;2.10;;;;;;;14.77;43.78;101458.03;4951896;29;20023;-92
2022/01/29 10:14:02;;;;;;;3.30;2.03;;;;;;;14.74;43.53;101447.56;4957328;28;20385;-92
2022/01/29 10:16:30;;;;;;;3.53;2.13;;;;;;;14.77;43.73;101452.78;4951542;29;20099;-92
2022/01/29 10:18:59;;;;;;;3.67;2.17;;;;;;;14.76;43.65;101456.31;4950765;29;20031;-93
2022/01/29 10:21:29;;;;;;;4.00;2.60;;;;;;;14.75;43.68;101459.81;4950178;29;20023;-93
2022/01/29 10:24:14;;;;;;;3.58;2.20;;;;;;;14.75;43.83;101454.56;4950925;29;20043;-92
2022/01/29 10:26:44;;;;;;;3.45;1.95;;;;;;;14.76;43.75;101455.41;4951489;29;20034;-92
2022/01/29 10:29:21;;;;;;;3.63;2.00;;;;;;;14.76;43.74;101458.94;4950736;29;20453;-92
2022/01/29 10:32:02;;;;;;;3.50;1.92;;;;;;;14.77;43.63;101467.66;4951105;29;20044;-92
2022/01/29 10:34:33;;;;;;;3.45;2.20;;;;;;;14.75;43.78;101465.06;4951336;29;20066;-93
2022/01/29 10:37:26;;;;;;;4.13;2.33;;;;;;;14.77;43.69;101467.66;4952448;29;20035;-92
2022/01/29 10:40:00;;;;;;;3.45;2.03;;;;;;;14.76;43.53;101472.06;4956298;29;20027;-92
2022/01/29 10:42:37;;;;;;;4.38;2.42;;;;;;;14.76;43.73;101469.44;4951295;29;20118;-93
2022/01/29 10:45:07;;;;;;;3.60;2.17;;;;;;;14.76;43.92;101472.06;4952090;29;20058;-92
2022/01/29 10:47:56;;;;;;;3.67;2.15;;;;;;;14.76;43.79;101472.06;4950769;29;20053;-92
2022/01/29 10:50:26;;;;;;;4.18;2.22;;;;;;;14.76;43.75;101472.06;4968277;29;20039;-92
2022/01/29 10:52:52;;;;;;;3.42;2.03;;;;;;;14.75;43.81;101483.47;4951742;29;20039;-92
2022/01/29 10:55:18;;;;;;;4.10;2.30;;;;;;;14.73;43.70;101482.53;4952294;29;20096;-93
2022/01/29 10:57:45;;;;;;;4.03;2.22;;;;;;;14.76;43.70;101477.31;4951531;29;20126;-92
2022/01/29 11:00:31;;;;;;;3.88;2.20;;;;;;;14.75;43.66;101470.31;4950271;29;20050;-93
2022/01/29 11:03:00;;;;;;;4.53;2.50;;;;;;;14.77;43.50;101462.41;4951431;29;20039;-93
2022/01/29 11:05:30;;;;;;;3.88;2.20;;;;;;;14.79;43.73;101459.78;4949237;29;20109;-93
2022/01/29 11:07:57;;;;;;;4.05;2.42;;;;;;;14.77;43.73;101458.03;4952439;28;20050;-93
2022/01/29 11:10:26;;;;;;;3.88;2.15;;;;;;;14.76;43.68;101451.03;4951962;29;20027;-92
2022/01/29 11:12:52;;;;;;;3.38;2.17;;;;;;;14.76;43.87;101456.31;4950479;29;20046;-93
2022/01/29 11:15:22;;;;;;;3.67;1.95;;;;;;;14.76;43.91;101451.03;4950295;29;20027;-93
2022/01/29 11:17:49;;;;;;;4.13;2.35;;;;;;;14.78;43.85;101445.78;4967276;29;20042;-93
2022/01/29 11:20:15;;;;;;;3.88;2.22;;;;;;;14.76;43.68;101443.16;4952089;29;20042;-93
2022/01/29 11:22:44;;;;;;;4.22;2.30;;;;;;;14.75;43.83;101433.53;4953043;29;20035;-93
2022/01/29 11:25:21;;;;;;;4.07;2.42;;;;;;;14.77;43.76;101431.75;4953221;29;20055;-92
2022/01/29 11:27:47;;;;;;;4.20;2.45;;;;;;;14.79;43.92;101428.25;4950869;29;20042;-93
2022/01/29 11:30:15;;;;;;;3.33;1.83;;;;;;;14.76;43.70;101435.28;4950372;29;20116;-92
2022/01/29 11:32:42;;;;;;;3.95;2.20;;;;;;;14.77;43.87;101433.50;4949921;29;20086;-92
2022/01/29 11:35:22;;;;;;;3.90;2.15;;;;;;;14.77;43.80;101426.50;4948249;28;20031;-92
2022/01/29 11:38:27;;;;;;;3.80;2.13;;;;;;;14.78;43.64;101427.41;4958469;29;20063;-92